Time;durP1;ratioP1;P1;durP2;ratioP2;P2;SDS_P1;SDS_P2;PMS_P1;PMS_P2;Temp;Humidity;BMP_temperature;BMP_pressure;BME280_temperature;BME280_humidity;BME280_pressure;Samples;Min_cycle;Max_cycle;Signal;HPM_P1;HPM_P2
2023/03/03 00:00:31;;;;;;;40.50;27.03;;;;;;;7.65;91.18;99797.66;5078185;28;20183;-55
2023/03/03 00:03:03;;;;;;;47.70;28.77;;;;;;;7.65;91.40;99790.00;5078022;28;20487;-54
2023/03/03 00:05:33;;;;;;;47.33;28.20;;;;;;;7.73;91.21;99780.88;5078055;28;20188;-55
2023/03/03 00:08:00;;;;;;;40.63;26.57;;;;;;;7.78;90.80;99781.00;5078029;28;20189;-55
2023/03/03 00:10:27;;;;;;;39.37;26.60;;;;;;;7.75;90.23;99769.84;5077996;28;20200;-54
2023/03/03 00:12:54;;;;;;;42.17;26.80;;;;;;;7.75;90.48;99769.84;5077964;28;20180;-55
2023/03/03 00:15:23;;;;;;;41.53;27.47;;;;;;;7.74;90.14;99763.84;5077885;28;20175;-55
2023/03/03 00:17:50;;;;;;;39.33;26.73;;;;;;;7.57;90.59;99750.53;5077910;28;20210;-55
2023/03/03 00:20:31;;;;;;;42.80;27.37;;;;;;;7.69;90.53;99757.72;5077675;28;20172;-54
2023/03/03 00:23:13;;;;;;;43.63;27.50;;;;;;;7.62;90.03;99741.31;5077673;28;20168;-56
2023/03/03 00:25:44;;;;;;;43.07;28.00;;;;;;;7.70;90.19;99739.00;5077698;28;20226;-55
2023/03/03 00:28:22;;;;;;;52.43;29.43;;;;;;;7.76;89.87;99744.31;5077244;28;20208;-54
2023/03/03 00:30:49;;;;;;;43.60;28.57;;;;;;;7.81;89.84;99735.06;5077485;28;20175;-54
2023/03/03 00:33:27;;;;;;;42.70;28.20;;;;;;;7.79;89.46;99731.63;5077551;28;20188;-54
2023/03/03 00:35:55;;;;;;;50.67;27.60;;;;;;;7.58;89.41;99703.66;5077516;28;20168;-55
2023/03/03 00:38:24;;;;;;;44.33;27.80;;;;;;;7.78;89.10;99729.00;5077501;28;20191;-54
2023/03/03 00:40:50;;;;;;;40.30;28.27;;;;;;;7.73;88.76;99728.88;5077571;28;20172;-55
2023/03/03 00:43:22;;;;;;;43.00;28.20;;;;;;;7.73;89.02;99722.06;5077326;28;20206;-55
2023/03/03 00:45:51;;;;;;;44.53;27.47;;;;;;;7.70;88.77;99721.09;5077376;28;20203;-55
2023/03/03 00:48:29;;;;;;;37.23;24.50;;;;;;;7.65;88.25;99715.84;5077459;28;20180;-54
2023/03/03 00:50:57;;;;;;;47.93;28.67;;;;;;;7.64;88.14;99708.97;5077374;28;20164;-54
2023/03/03 00:53:27;;;;;;;42.33;28.37;;;;;;;7.53;88.73;99712.88;5077346;28;20183;-54
2023/03/03 00:55:54;;;;;;;42.37;28.10;;;;;;;7.58;89.40;99706.22;5077306;28;20185;-55
2023/03/03 00:58:22;;;;;;;40.73;26.47;;;;;;;7.64;88.78;99703.88;5077333;28;20196;-54
2023/03/03 01:00:50;;;;;;;41.37;26.60;;;;;;;7.70;88.23;99700.63;5077324;28;20202;-54
2023/03/03 01:03:19;;;;;;;39.83;26.70;;;;;;;7.72;87.06;99701.53;5077367;28;20209;-55
2023/03/03 01:05:46;;;;;;;46.97;27.80;;;;;;;7.59;87.52;99679.84;5077350;28;20203;-53
2023/03/03 01:08:13;;;;;;;46.37;27.20;;;;;;;7.78;87.83;99701.72;5081448;28;20172;-53
2023/03/03 01:10:45;;;;;;;39.53;26.83;;;;;;;7.62;87.21;99682.50;5081447;28;20188;-55
2023/03/03 01:13:12;;;;;;;41.97;27.43;;;;;;;7.78;87.75;99700.84;5081372;28;20179;-54
2023/03/03 01:15:40;;;;;;;46.03;27.90;;;;;;;7.80;87.53;99704.34;5081387;28;20204;-54
2023/03/03 01:18:07;;;;;;;49.40;28.23;;;;;;;7.80;87.29;99701.78;5081371;28;20179;-55
2023/03/03 01:20:34;;;;;;;44.33;27.70;;;;;;;7.79;87.43;99694.94;5081165;28;20179;-55
2023/03/03 01:23:01;;;;;;;45.07;27.73;;;;;;;7.78;87.20;99696.63;5081286;28;20172;-55
2023/03/03 01:25:28;;;;;;;39.65;27.80;;;;;;;7.83;87.41;99701.88;5081141;28;20494;-55
2023/03/03 01:27:56;;;;;;;43.83;27.33;;;;;;;7.81;86.72;99688.16;5081120;28;20212;-57
2023/03/03 01:30:25;;;;;;;39.27;26.30;;;;;;;7.73;86.80;99686.25;5081075;28;20211;-54
2023/03/03 01:32:52;;;;;;;43.77;25.93;;;;;;;7.78;87.16;99696.63;5080990;28;20173;-54
2023/03/03 01:35:19;;;;;;;43.93;27.50;;;;;;;7.78;87.45;99698.31;5081071;28;20172;-54
2023/03/03 01:37:46;;;;;;;38.70;26.90;;;;;;;7.70;87.84;99698.94;5081197;28;20206;-55
2023/03/03 01:40:16;;;;;;;44.73;28.47;;;;;;;7.71;87.83;99692.16;5081101;28;20183;-56
2023/03/03 01:42:43;;;;;;;43.97;27.63;;;;;;;7.75;87.88;99700.78;5081191;28;20188;-55
2023/03/03 01:45:18;;;;;;;44.07;28.00;;;;;;;7.78;87.91;99698.31;5080752;28;20184;-55
2023/03/03 01:47:50;;;;;;;50.57;28.30;;;;;;;7.79;87.67;99690.69;5080537;28;20203;-54
2023/03/03 01:50:27;;;;;;;43.60;28.10;;;;;;;7.78;87.42;99690.63;5080733;28;20256;-55
2023/03/03 01:52:55;;;;;;;45.67;28.33;;;;;;;7.78;87.54;99694.06;5080496;28;20168;-56
2023/03/03 01:55:25;;;;;;;47.17;28.67;;;;;;;7.62;87.94;99669.72;5080530;28;20183;-55
2023/03/03 01:57:59;;;;;;;47.73;29.50;;;;;;;7.72;87.97;99681.94;5080460;28;20172;-54
2023/03/03 02:00:27;;;;;;;43.63;28.23;;;;;;;7.73;88.33;99670.03;5080455;28;20180;-55
2023/03/03 02:02:55;;;;;;;40.67;27.27;;;;;;;7.78;87.83;99685.50;5080485;28;20173;-55
2023/03/03 02:05:22;;;;;;;42.17;27.43;;;;;;;7.84;87.92;99683.16;5080428;28;20169;-55
2023/03/03 02:07:50;;;;;;;52.30;28.17;;;;;;;7.84;87.40;99681.47;5080247;28;20212;-55
2023/03/03 02:10:19;;;;;;;40.43;27.67;;;;;;;7.90;87.38;99680.78;5080260;28;20188;-55
2023/03/03 02:12:49;;;;;;;42.17;27.73;;;;;;;7.85;86.75;99677.22;5080277;28;20212;-55
2023/03/03 02:15:19;;;;;;;40.33;27.63;;;;;;;7.83;86.91;99672.03;5080255;28;20165;-55
2023/03/03 02:17:49;;;;;;;41.33;28.33;;;;;;;7.86;86.33;99678.94;5078763;28;20164;-54
2023/03/03 02:20:22;;;;;;;42.47;27.37;;;;;;;7.86;86.72;99671.25;5080121;28;20195;-55
2023/03/03 02:22:57;;;;;;;46.67;27.50;;;;;;;7.83;86.67;99668.63;5079983;28;20199;-55
2023/03/03 02:25:32;;;;;;;41.17;26.33;;;;;;;7.85;86.63;99674.66;5080118;28;20191;-55
2023/03/03 02:28:01;;;;;;;44.77;27.43;;;;;;;7.78;86.62;99671.03;5079707;28;20226;-55
2023/03/03 02:30:28;;;;;;;48.63;32.35;;;;;;;7.80;87.38;99676.22;5079106;28;20415;-55
2023/03/03 02:32:55;;;;;;;47.00;28.10;;;;;;;7.76;87.31;99671.81;5079855;28;20184;-54
2023/03/03 02:35:29;;;;;;;49.20;28.83;;;;;;;7.72;87.72;99675.97;5079832;28;20206;-54
2023/03/03 02:37:59;;;;;;;47.63;28.00;;;;;;;7.78;87.54;99671.03;5079790;28;20291;-54
2023/03/03 02:40:31;;;;;;;46.63;27.37;;;;;;;7.62;88.40;99667.16;5079750;28;20196;-54
2023/03/03 02:43:02;;;;;;;38.67;27.87;;;;;;;7.52;88.28;99657.50;5089301;28;20202;-54
2023/03/03 02:45:29;;;;;;;43.37;29.10;;;;;;;7.48;88.90;99665.88;5099697;28;20179;-54
2023/03/03 02:47:55;;;;;;;43.53;28.03;;;;;;;7.43;89.34;99669.09;5099555;28;20215;-55
2023/03/03 02:50:23;;;;;;;43.97;29.30;;;;;;;7.39;89.74;99667.28;5099586;28;20172;-56
2023/03/03 02:52:49;;;;;;;48.47;29.07;;;;;;;7.31;91.59;99667.03;5099596;28;20215;-55
2023/03/03 02:55:16;;;;;;;50.43;30.07;;;;;;;7.14;93.20;99673.31;5099490;28;20270;-55
2023/03/03 02:57:43;;;;;;;50.27;30.20;;;;;;;7.04;93.53;99674.66;5099458;28;20215;-55
2023/03/03 03:00:12;;;;;;;47.43;29.50;;;;;;;6.98;94.96;99671.03;5099419;28;20168;-54
2023/03/03 03:02:39;;;;;;;45.30;28.73;;;;;;;6.95;95.65;99674.34;5099380;28;20211;-60
2023/03/03 03:05:07;;;;;;;45.40;29.80;;;;;;;6.95;95.82;99670.97;5095127;28;20188;-54
2023/03/03 03:07:34;;;;;;;42.97;29.33;;;;;;;6.91;96.58;99671.66;5079106;28;20255;-55
2023/03/03 03:10:01;;;;;;;48.93;31.33;;;;;;;6.90;96.78;99675.03;5079267;28;20176;-54
2023/03/03 03:12:28;;;;;;;45.63;30.37;;;;;;;6.88;97.30;99663.91;5082710;28;20176;-54
2023/03/03 03:14:54;;;;;;;52.27;32.60;;;;;;;6.90;97.89;99668.25;5099282;28;20174;-55
2023/03/03 03:17:22;;;;;;;51.87;32.50;;;;;;;6.93;98.07;99667.47;5099134;28;20172;-55
2023/03/03 03:19:49;;;;;;;48.40;33.23;;;;;;;6.82;98.02;99658.56;5098755;28;20198;-53
2023/03/03 03:22:16;;;;;;;51.70;33.03;;;;;;;6.92;98.47;99661.47;5095869;28;20192;-54
2023/03/03 03:24:43;;;;;;;47.80;32.00;;;;;;;6.92;98.68;99661.47;5078907;28;20173;-54
2023/03/03 03:27:10;;;;;;;53.70;30.73;;;;;;;6.96;98.68;99658.22;5078598;28;20224;-53
2023/03/03 03:29:37;;;;;;;49.93;32.77;;;;;;;6.86;98.50;99630.66;5078253;28;20237;-54
2023/03/03 03:32:03;;;;;;;47.20;31.80;;;;;;;7.03;97.90;99662.72;5078720;28;20210;-55
2023/03/03 03:34:32;;;;;;;50.20;32.97;;;;;;;7.08;97.59;99657.75;5078578;28;20179;-55
2023/03/03 03:36:58;;;;;;;51.30;31.80;;;;;;;7.12;97.03;99657.91;5078611;28;20202;-54
2023/03/03 03:39:25;;;;;;;49.50;32.03;;;;;;;7.12;96.19;99657.91;5078504;28;20184;-54
2023/03/03 03:41:52;;;;;;;50.47;31.20;;;;;;;7.11;95.92;99661.25;5078514;28;20176;-54
2023/03/03 03:44:20;;;;;;;52.70;30.67;;;;;;;7.03;96.58;99647.38;5078329;28;20172;-54
2023/03/03 03:46:46;;;;;;;48.27;30.67;;;;;;;7.06;96.56;99661.94;5078362;28;20226;-54
2023/03/03 03:49:13;;;;;;;56.63;30.70;;;;;;;7.06;96.09;99662.81;5078384;28;20186;-54
2023/03/03 03:51:41;;;;;;;52.25;32.97;;;;;;;7.06;96.23;99659.38;5078036;28;20423;-54
2023/03/03 03:54:08;;;;;;;47.70;30.73;;;;;;;7.07;96.04;99656.03;5078285;28;20187;-55
2023/03/03 03:56:35;;;;;;;53.90;31.43;;;;;;;7.14;96.09;99665.63;5078364;28;20173;-56
2023/03/03 03:59:01;;;;;;;52.83;31.40;;;;;;;7.10;95.89;99648.47;5078176;28;20176;-55
2023/03/03 04:01:28;;;;;;;47.63;32.03;;;;;;;7.14;96.20;99652.88;5078286;28;20196;-56
2023/03/03 04:03:55;;;;;;;52.60;35.03;;;;;;;7.25;95.74;99663.41;5078229;28;20214;-55
2023/03/03 04:06:22;;;;;;;65.53;35.30;;;;;;;7.19;95.84;99653.88;5077949;28;20173;-55
2023/03/03 04:08:50;;;;;;;55.10;35.53;;;;;;;7.18;96.45;99659.78;5077877;28;20176;-54
2023/03/03 04:11:17;;;;;;;52.60;34.70;;;;;;;7.05;96.25;99657.66;5078002;28;20183;-54
2023/03/03 04:13:44;;;;;;;55.03;36.27;;;;;;;7.12;96.70;99655.34;5077974;28;20172;-54
2023/03/03 04:16:10;;;;;;;58.67;34.57;;;;;;;7.01;96.79;99659.25;5077833;28;20172;-54
2023/03/03 04:18:37;;;;;;;56.07;33.43;;;;;;;7.04;96.61;99655.91;5077864;28;20197;-55
2023/03/03 04:21:04;;;;;;;53.10;34.53;;;;;;;6.94;97.13;99648.78;5077828;28;20172;-55
2023/03/03 04:23:31;;;;;;;50.17;33.43;;;;;;;6.97;97.52;99654.88;5077685;28;20172;-55
2023/03/03 04:25:59;;;;;;;50.70;34.17;;;;;;;6.87;97.53;99641.72;5077807;28;20195;-58
2023/03/03 04:28:26;;;;;;;51.27;34.03;;;;;;;6.88;97.79;99656.22;5077342;28;20220;-55
2023/03/03 04:30:53;;;;;;;56.73;34.90;;;;;;;6.90;98.80;99657.16;5077793;28;20175;-55
2023/03/03 04:33:20;;;;;;;56.87;37.27;;;;;;;6.88;98.28;99644.34;5077656;28;20188;-55
2023/03/03 04:35:46;;;;;;;55.83;35.23;;;;;;;6.95;98.04;99656.47;5077626;28;20246;-55
2023/03/03 04:38:13;;;;;;;52.17;34.77;;;;;;;6.98;97.80;99654.03;5077584;28;20209;-55
2023/03/03 04:40:41;;;;;;;59.30;34.53;;;;;;;6.96;97.58;99657.34;5076804;28;20175;-55
2023/03/03 04:43:10;;;;;;;57.17;35.70;;;;;;;6.83;97.45;99650.97;5077560;28;20202;-55
2023/03/03 04:45:37;;;;;;;52.63;34.70;;;;;;;6.84;97.86;99646.75;5077327;28;20176;-54
2023/03/03 04:48:05;;;;;;;48.87;32.07;;;;;;;6.80;97.12;99647.44;5077360;28;20206;-55
2023/03/03 04:50:32;;;;;;;52.87;33.43;;;;;;;6.79;97.10;99653.38;5077397;28;20172;-55
2023/03/03 04:52:59;;;;;;;54.93;36.13;;;;;;;6.76;97.43;99649.03;5077413;28;20205;-55
2023/03/03 04:55:25;;;;;;;51.93;35.10;;;;;;;6.71;97.51;99647.13;5077414;28;20204;-54
2023/03/03 04:57:52;;;;;;;62.23;37.97;;;;;;;6.72;97.85;99649.75;5077486;28;20209;-54
2023/03/03 05:00:21;;;;;;;55.13;37.20;;;;;;;6.63;98.79;99651.13;5077394;28;20183;-55
2023/03/03 05:02:48;;;;;;;58.97;35.80;;;;;;;6.64;98.84;99648.63;5077178;28;20218;-54
2023/03/03 05:05:15;;;;;;;56.23;35.23;;;;;;;6.43;99.14;99622.34;5077241;28;20188;-54
2023/03/03 05:07:42;;;;;;;61.07;36.50;;;;;;;6.63;99.52;99649.44;5077280;28;20223;-54
2023/03/03 05:10:10;;;;;;;54.00;36.50;;;;;;;6.70;99.50;99655.63;5077143;28;20171;-54
2023/03/03 05:12:37;;;;;;;54.57;34.63;;;;;;;6.69;98.75;99659.00;5077217;28;20179;-54
2023/03/03 05:15:04;;;;;;;61.63;41.55;;;;;;;6.77;99.23;99652.44;5076732;28;20434;-55
2023/03/03 05:17:32;;;;;;;58.37;37.27;;;;;;;6.76;99.06;99659.25;5077254;28;20192;-54
2023/03/03 05:19:59;;;;;;;67.97;36.40;;;;;;;6.75;98.55;99662.63;5077024;28;20201;-55
2023/03/03 05:22:26;;;;;;;57.60;37.77;;;;;;;6.80;98.42;99665.31;5076899;28;20187;-54
2023/03/03 05:24:52;;;;;;;63.97;40.30;;;;;;;6.81;97.94;99662.81;5077050;28;20207;-55
2023/03/03 05:27:20;;;;;;;53.77;38.80;;;;;;;6.88;98.04;99659.66;5076760;28;20253;-54
2023/03/03 05:29:46;;;;;;;55.13;37.83;;;;;;;6.91;97.74;99664.00;5076968;28;20181;-54
2023/03/03 05:32:13;;;;;;;58.90;39.17;;;;;;;6.94;97.19;99659.00;5076858;28;20172;-55
2023/03/03 05:34:41;;;;;;;70.97;40.10;;;;;;;6.90;97.26;99662.25;5076709;28;20172;-55
2023/03/03 05:37:08;;;;;;;58.30;35.97;;;;;;;6.99;96.72;99668.56;5076834;28;20204;-54
2023/03/03 05:39:36;;;;;;;53.70;35.60;;;;;;;7.05;96.25;99661.09;5076917;28;20200;-55
2023/03/03 05:42:03;;;;;;;59.40;37.23;;;;;;;7.09;95.28;99668.03;5076911;28;20177;-55
2023/03/03 05:44:30;;;;;;;54.97;37.10;;;;;;;7.20;94.80;99663.25;5077216;28;20183;-55
2023/03/03 05:46:57;;;;;;;56.33;34.73;;;;;;;7.28;93.78;99661.81;5085657;28;20199;-55
2023/03/03 05:49:24;;;;;;;60.60;35.70;;;;;;;7.25;92.73;99665.97;5096970;28;21265;-55
2023/03/03 05:51:52;;;;;;;45.93;31.57;;;;;;;7.13;92.20;99676.66;5096819;28;20177;-55
2023/03/03 05:54:21;;;;;;;55.30;33.03;;;;;;;7.21;92.14;99665.00;5100587;28;20174;-54
2023/03/03 05:56:48;;;;;;;46.57;30.77;;;;;;;7.22;91.97;99669.31;5098476;28;20220;-55
2023/03/03 05:59:15;;;;;;;48.43;30.17;;;;;;;7.32;90.71;99673.00;5086253;28;20188;-55
2023/03/03 06:01:42;;;;;;;47.93;29.57;;;;;;;7.29;90.57;99671.22;5100252;28;20189;-54
2023/03/03 06:04:08;;;;;;;42.27;30.07;;;;;;;7.31;90.53;99672.13;5100515;28;20183;-55
2023/03/03 06:06:36;;;;;;;44.23;29.17;;;;;;;7.39;89.54;99680.91;5100496;28;20197;-56
2023/03/03 06:09:05;;;;;;;43.43;30.00;;;;;;;7.37;89.56;99677.44;5100517;28;20195;-54
2023/03/03 06:11:32;;;;;;;48.67;31.33;;;;;;;7.39;89.16;99669.84;5100382;28;20167;-54
2023/03/03 06:13:59;;;;;;;45.47;29.80;;;;;;;7.41;89.01;99679.28;5100478;28;20180;-54
2023/03/03 06:16:26;;;;;;;46.97;29.60;;;;;;;7.51;89.25;99675.31;5100243;28;20182;-55
2023/03/03 06:18:52;;;;;;;37.30;26.87;;;;;;;7.52;88.09;99683.06;5099896;28;20191;-54
2023/03/03 06:21:19;;;;;;;50.33;30.43;;;;;;;7.54;87.48;99683.97;5100127;28;20172;-54
2023/03/03 06:23:46;;;;;;;44.03;27.57;;;;;;;7.55;87.61;99677.16;5100247;28;20243;-55
2023/03/03 06:26:14;;;;;;;41.27;27.60;;;;;;;7.52;87.38;99690.72;5099852;28;20172;-54
2023/03/03 06:28:41;;;;;;;42.90;28.07;;;;;;;7.45;86.94;99690.47;5099547;28;20242;-54
2023/03/03 06:31:08;;;;;;;38.07;27.67;;;;;;;7.45;87.48;99686.22;5099739;28;20178;-54
2023/03/03 06:33:34;;;;;;;41.30;30.07;;;;;;;7.51;87.93;99690.66;5099469;28;20171;-55
2023/03/03 06:36:01;;;;;;;49.57;31.33;;;;;;;7.48;88.06;99691.44;5099605;28;20243;-54
2023/03/03 06:38:28;;;;;;;47.78;36.47;;;;;;;7.52;88.23;99685.59;5099168;28;20428;-54
2023/03/03 06:40:55;;;;;;;46.00;31.57;;;;;;;7.62;87.69;99691.84;5099612;28;20174;-54
2023/03/03 06:43:23;;;;;;;40.97;30.07;;;;;;;7.58;87.46;99683.22;5099473;28;20172;-54
2023/03/03 06:45:50;;;;;;;46.03;29.87;;;;;;;7.72;87.54;99684.50;5099418;28;20183;-55
2023/03/03 06:48:16;;;;;;;50.73;32.40;;;;;;;7.82;86.97;99683.13;5099368;28;20211;-54
2023/03/03 06:50:43;;;;;;;46.47;30.97;;;;;;;7.84;86.14;99690.81;5099216;28;20172;-54
2023/03/03 06:53:13;;;;;;;46.77;33.00;;;;;;;7.88;86.20;99692.66;5099491;28;20205;-54
2023/03/03 06:55:43;;;;;;;56.80;33.30;;;;;;;7.89;85.94;99689.25;5099007;28;20172;-55
2023/03/03 06:58:13;;;;;;;52.70;37.20;;;;;;;7.94;86.06;99697.97;5099614;28;20180;-54
2023/03/03 07:00:43;;;;;;;51.70;35.67;;;;;;;7.93;86.42;99688.53;5099499;28;20218;-55
2023/03/03 07:03:15;;;;;;;58.93;37.57;;;;;;;8.07;86.72;99688.13;5099151;28;20182;-54
2023/03/03 07:05:43;;;;;;;58.33;40.70;;;;;;;8.19;86.47;99685.03;5098070;28;20187;-55
2023/03/03 07:08:14;;;;;;;44.50;34.03;;;;;;;8.24;85.92;99680.94;5099047;28;20201;-55
2023/03/03 07:10:41;;;;;;;55.80;34.50;;;;;;;8.33;84.98;99686.34;5080830;28;20184;-55
2023/03/03 07:13:18;;;;;;;46.30;32.30;;;;;;;8.26;85.05;99685.28;5079044;28;20221;-55
2023/03/03 07:15:47;;;;;;;46.47;33.23;;;;;;;8.15;85.12;99691.78;5088590;28;20172;-55
2023/03/03 07:18:28;;;;;;;46.10;31.47;;;;;;;8.22;84.88;99691.13;5097564;28;20308;-55
2023/03/03 07:20:55;;;;;;;46.13;31.90;;;;;;;8.19;84.92;99691.03;5086653;28;20190;-56
2023/03/03 07:23:24;;;;;;;48.30;34.90;;;;;;;8.31;85.56;99688.00;5098690;28;20202;-56
2023/03/03 07:25:52;;;;;;;48.57;32.20;;;;;;;8.34;84.75;99684.66;5098896;28;20168;-54
2023/03/03 07:28:23;;;;;;;46.90;31.43;;;;;;;8.44;83.66;99686.63;5096128;28;20219;-55
2023/03/03 07:30:52;;;;;;;39.77;28.80;;;;;;;8.54;82.93;99689.47;5098900;28;20213;-55
2023/03/03 07:33:25;;;;;;;40.87;30.20;;;;;;;8.66;82.83;99689.81;5098795;28;20175;-55
2023/03/03 07:35:53;;;;;;;35.53;25.80;;;;;;;8.73;82.40;99680.63;5098742;28;20183;-55
2023/03/03 07:38:34;;;;;;;34.47;23.87;;;;;;;8.84;80.93;99685.16;5098520;28;20179;-56
2023/03/03 07:41:03;;;;;;;33.70;23.40;;;;;;;8.90;79.93;99684.47;5097745;28;20188;-55
2023/03/03 07:43:34;;;;;;;41.17;30.17;;;;;;;8.92;79.60;99681.94;5098058;28;20213;-55
2023/03/03 07:46:21;;;;;;;35.83;23.17;;;;;;;8.90;79.03;99680.22;5098247;28;20214;-55
2023/03/03 07:48:49;;;;;;;32.03;24.23;;;;;;;9.00;78.79;99683.88;5098451;28;20191;-59
2023/03/03 07:51:22;;;;;;;33.97;24.40;;;;;;;9.02;79.25;99676.22;5098277;28;20168;-55
2023/03/03 07:53:49;;;;;;;36.60;23.50;;;;;;;9.03;78.91;99675.41;5098142;28;20235;-55
2023/03/03 07:56:26;;;;;;;32.00;24.07;;;;;;;9.14;78.85;99684.22;5097915;28;20178;-55
2023/03/03 07:58:55;;;;;;;37.20;23.90;;;;;;;9.14;78.69;99671.41;5098279;28;20171;-55
2023/03/03 08:01:48;;;;;;;37.07;23.50;;;;;;;9.22;78.73;99681.03;5098368;28;20191;-55
2023/03/03 08:04:21;;;;;;;30.77;21.87;;;;;;;9.23;79.35;99679.34;5098092;28;20172;-56
2023/03/03 08:06:53;;;;;;;36.27;23.30;;;;;;;9.09;79.17;99645.66;5097144;28;20176;-55
2023/03/03 08:09:43;;;;;;;51.67;31.70;;;;;;;9.25;79.93;99667.41;5098238;28;20196;-55
2023/03/03 08:12:36;;;;;;;33.17;24.03;;;;;;;9.08;79.07;99645.63;5097920;28;20175;-56
2023/03/03 08:15:17;;;;;;;27.58;23.38;;;;;;;9.29;78.55;99653.81;5096861;28;20414;-55
2023/03/03 08:17:48;;;;;;;24.60;21.27;;;;;;;9.41;77.81;99670.38;5098295;28;20202;-55
2023/03/03 08:20:42;;;;;;;30.03;23.27;;;;;;;9.37;78.82;99660.00;5098202;28;20178;-55
2023/03/03 08:23:09;;;;;;;26.50;21.77;;;;;;;9.32;78.40;99662.47;5098273;28;20190;-56
2023/03/03 08:25:35;;;;;;;32.03;21.27;;;;;;;9.29;78.74;99657.25;5097812;28;20175;-55
2023/03/03 08:28:02;;;;;;;28.13;20.93;;;;;;;9.19;78.16;99660.44;5097032;28;20234;-55
2023/03/03 08:30:29;;;;;;;31.83;20.50;;;;;;;9.16;78.58;99657.81;5097257;28;20182;-56
2023/03/03 08:32:57;;;;;;;31.00;22.80;;;;;;;9.09;78.60;99649.94;5097297;28;20172;-56
2023/03/03 08:35:24;;;;;;;29.63;21.00;;;;;;;8.93;79.10;99651.22;5097115;28;20192;-56
2023/03/03 08:37:51;;;;;;;31.23;21.80;;;;;;;8.94;79.55;99642.72;5090720;28;20184;-55
2023/03/03 08:40:18;;;;;;;39.87;21.13;;;;;;;8.98;80.43;99636.00;5089848;28;20210;-54
2023/03/03 08:42:45;;;;;;;30.27;21.60;;;;;;;9.04;80.76;99636.16;5096949;28;20209;-56
2023/03/03 08:45:12;;;;;;;31.37;22.37;;;;;;;9.06;81.30;99634.47;5097169;28;20178;-56
2023/03/03 08:47:43;;;;;;;34.87;22.10;;;;;;;9.14;81.11;99630.41;5096991;28;20178;-55
2023/03/03 08:50:13;;;;;;;33.27;24.60;;;;;;;9.15;80.90;99622.75;5096931;28;20179;-55
2023/03/03 08:52:40;;;;;;;30.60;23.50;;;;;;;9.26;81.59;99635.81;5095489;28;20195;-56
2023/03/03 08:55:08;;;;;;;36.90;24.97;;;;;;;9.32;82.05;99629.13;5096687;28;20201;-55
2023/03/03 08:57:34;;;;;;;32.33;25.27;;;;;;;9.38;81.86;99630.97;5096948;28;20182;-56
2023/03/03 09:00:01;;;;;;;31.30;22.27;;;;;;;9.39;81.90;99628.44;5096562;28;20183;-56
2023/03/03 09:02:28;;;;;;;32.10;24.00;;;;;;;9.41;81.44;99638.75;5096937;28;20247;-56
2023/03/03 09:04:55;;;;;;;28.13;22.23;;;;;;;9.43;82.22;99627.69;5096920;28;20180;-56
2023/03/03 09:07:23;;;;;;;29.67;22.07;;;;;;;9.40;81.20;99629.31;5096660;28;20246;-56
2023/03/03 09:09:50;;;;;;;28.37;21.70;;;;;;;9.41;81.48;99634.47;5095658;28;20211;-58
2023/03/03 09:12:18;;;;;;;33.43;21.47;;;;;;;9.40;81.80;99635.31;5094844;28;20190;-55
2023/03/03 09:14:47;;;;;;;30.07;20.80;;;;;;;9.41;82.13;99631.03;5095009;28;20195;-55
2023/03/03 09:17:25;;;;;;;25.57;19.17;;;;;;;9.35;81.35;99626.66;5095713;28;20256;-55
2023/03/03 09:19:52;;;;;;;30.23;20.43;;;;;;;9.43;82.88;99626.81;5096207;28;20191;-55
2023/03/03 09:22:21;;;;;;;29.13;20.37;;;;;;;9.52;83.76;99628.72;5096371;28;20172;-54
2023/03/03 09:24:52;;;;;;;32.43;24.50;;;;;;;9.52;81.83;99616.75;5096290;28;20187;-55
2023/03/03 09:27:29;;;;;;;29.00;22.10;;;;;;;9.69;82.85;99623.13;5097344;28;20207;-56
2023/03/03 09:29:57;;;;;;;33.03;24.30;;;;;;;9.73;83.49;99619.78;5100318;28;20222;-56
2023/03/03 09:32:33;;;;;;;31.10;23.10;;;;;;;9.83;82.36;99618.31;5100450;28;20171;-55
2023/03/03 09:35:01;;;;;;;28.00;23.27;;;;;;;9.88;81.24;99624.38;5100458;28;20171;-57
2023/03/03 09:37:33;;;;;;;32.97;21.63;;;;;;;9.83;81.22;99616.56;5099964;28;20184;-55
2023/03/03 09:40:02;;;;;;;29.97;21.47;;;;;;;9.75;79.94;99602.72;5092204;28;20218;-55
2023/03/03 09:42:51;;;;;;;27.90;21.27;;;;;;;9.70;78.94;99611.16;5095209;28;20253;-55
2023/03/03 09:45:39;;;;;;;22.23;17.90;;;;;;;9.36;76.91;99610.44;5080108;28;20168;-55
2023/03/03 09:48:23;;;;;;;30.47;21.97;;;;;;;9.42;78.64;99614.84;5079632;28;20172;-59
2023/03/03 09:51:02;;;;;;;34.10;22.97;;;;;;;9.44;79.75;99614.03;5079762;28;20196;-55
2023/03/03 09:53:42;;;;;;;27.20;21.00;;;;;;;9.51;80.21;99609.91;5079592;28;20173;-55
2023/03/03 09:56:17;;;;;;;31.30;21.43;;;;;;;9.56;80.94;99613.41;5079647;28;20176;-56
2023/03/03 09:58:56;;;;;;;25.23;17.60;;;;;;;9.50;79.14;99608.19;5079694;28;20172;-55
2023/03/03 10:01:40;;;;;;;29.17;19.47;;;;;;;9.49;79.28;99607.31;5079538;28;20198;-55
2023/03/03 10:04:42;;;;;;;32.47;22.63;;;;;;;9.52;80.12;99605.63;5079625;28;20202;-55
2023/03/03 10:07:26;;;;;;;32.43;24.17;;;;;;;9.48;81.13;99604.69;5079504;28;20184;-56
2023/03/03 10:10:25;;;;;;;32.73;23.73;;;;;;;9.37;81.32;99611.28;5079287;28;20242;-55
2023/03/03 10:13:06;;;;;;;32.27;23.90;;;;;;;9.36;81.81;99607.00;5074043;28;20181;-55
2023/03/03 10:15:43;;;;;;;31.37;23.80;;;;;;;9.26;82.13;99610.16;5081956;28;20233;-55
2023/03/03 10:18:25;;;;;;;31.17;22.37;;;;;;;8.78;81.12;99545.81;5099368;28;20203;-55
2023/03/03 10:21:04;;;;;;;29.67;21.20;;;;;;;9.13;82.04;99610.72;5099330;28;20179;-55
2023/03/03 10:23:51;;;;;;;28.27;21.80;;;;;;;9.13;81.02;99605.59;5093109;28;20190;-55
2023/03/03 10:26:27;;;;;;;29.33;21.97;;;;;;;9.12;80.69;99601.31;5083942;28;20258;-55
2023/03/03 10:29:17;;;;;;;28.63;21.73;;;;;;;9.05;80.61;99600.28;5093437;28;20246;-55
2023/03/03 10:32:09;;;;;;;29.80;21.50;;;;;;;9.00;80.54;99604.44;5079292;28;20172;-56
2023/03/03 10:34:54;;;;;;;28.47;20.87;;;;;;;9.06;80.63;99596.03;5080501;28;20195;-54
2023/03/03 10:37:28;;;;;;;30.83;21.37;;;;;;;9.08;80.78;99592.69;5089697;28;20235;-55
2023/03/03 10:40:09;;;;;;;31.60;21.83;;;;;;;9.11;80.06;99584.19;5096378;28;20184;-55
2023/03/03 10:43:06;;;;;;;36.00;23.97;;;;;;;9.13;79.75;99588.53;5088452;28;20184;-54
2023/03/03 10:46:03;;;;;;;32.67;22.10;;;;;;;9.15;79.86;99581.72;5100529;28;20180;-55
2023/03/03 10:48:53;;;;;;;29.80;22.17;;;;;;;9.14;79.57;99582.56;5076589;28;20188;-55
2023/03/03 10:51:32;;;;;;;31.40;21.97;;;;;;;9.24;78.88;99575.94;5078538;28;20172;-55
2023/03/03 10:54:19;;;;;;;28.23;21.80;;;;;;;9.27;78.17;99576.00;5081665;28;20203;-55
2023/03/03 10:56:52;;;;;;;38.57;22.83;;;;;;;9.27;78.38;99573.44;5097256;28;20226;-55
2023/03/03 10:59:38;;;;;;;31.67;23.27;;;;;;;9.28;78.36;99562.38;5098319;28;20216;-55
2023/03/03 11:02:13;;;;;;;29.13;21.90;;;;;;;9.29;79.36;99553.84;5096586;28;20187;-55
2023/03/03 11:05:12;;;;;;;30.50;22.43;;;;;;;9.21;79.17;99560.50;5097925;28;20195;-55
2023/03/03 11:07:43;;;;;;;26.63;21.27;;;;;;;9.28;79.21;99557.25;5098185;28;20183;-56
2023/03/03 11:10:32;;;;;;;28.93;21.33;;;;;;;9.37;78.12;99548.03;5098245;28;20267;-56
2023/03/03 11:13:14;;;;;;;28.77;21.03;;;;;;;9.29;77.70;99546.16;5098164;28;20172;-55
2023/03/03 11:15:51;;;;;;;29.17;21.97;;;;;;;9.30;78.68;99546.19;5098027;28;20186;-55
2023/03/03 11:18:33;;;;;;;30.60;21.77;;;;;;;9.37;79.06;99548.03;5098328;28;20179;-56
2023/03/03 11:21:09;;;;;;;30.33;20.40;;;;;;;9.46;79.18;99532.88;5097975;28;20210;-55
2023/03/03 11:23:58;;;;;;;30.30;23.23;;;;;;;9.49;77.95;99544.88;5098028;28;20289;-55
2023/03/03 11:26:41;;;;;;;31.83;23.10;;;;;;;9.42;77.78;99530.22;5091812;28;20247;-56
2023/03/03 11:29:23;;;;;;;31.87;23.83;;;;;;;9.52;78.00;99538.97;5079956;28;20204;-55
2023/03/03 11:31:55;;;;;;;29.77;22.07;;;;;;;9.68;77.70;99541.00;5090502;28;20252;-56
2023/03/03 11:34:44;;;;;;;29.67;23.50;;;;;;;9.62;77.04;99531.47;5097758;28;20248;-55
2023/03/03 11:37:16;;;;;;;34.70;24.00;;;;;;;9.36;78.45;99524.94;5097761;28;20171;-55
2023/03/03 11:39:44;;;;;;;30.83;22.80;;;;;;;9.55;77.52;99528.75;5097801;28;20176;-55
2023/03/03 11:42:19;;;;;;;37.22;28.90;;;;;;;9.65;77.13;99534.09;5094817;28;20438;-55